sensor_id;sensor_type;location;lat;lon;timestamp;pressure;altitude;pressure_sealevel;temperature;humidity
12963;BME280;6546;49.882;8.666;2023-04-07T00:01:08;100045.47;;;8.40;77.59
12963;BME280;6546;49.882;8.666;2023-04-07T00:03:36;100043.53;;;8.42;77.49
12963;BME280;6546;49.882;8.666;2023-04-07T00:06:05;100030.25;;;8.37;77.36
12963;BME280;6546;49.882;8.666;2023-04-07T00:08:31;100033.94;;;8.34;77.24
12963;BME280;6546;49.882;8.666;2023-04-07T00:10:58;100036.09;;;8.39;76.87
12963;BME280;6546;49.882;8.666;2023-04-07T00:13:25;100034.97;;;8.41;76.90
12963;BME280;6546;49.882;8.666;2023-04-07T00:15:51;100034.03;;;8.42;76.94
12963;BME280;6546;49.882;8.666;2023-04-07T00:18:18;100030.75;;;8.40;76.80
12963;BME280;6546;49.882;8.666;2023-04-07T00:20:46;100032.38;;;8.41;76.62
12963;BME280;6546;49.882;8.666;2023-04-07T00:23:12;100027.53;;;8.38;76.98
12963;BME280;6546;49.882;8.666;2023-04-07T00:25:39;100024.94;;;8.38;77.12
12963;BME280;6546;49.882;8.666;2023-04-07T00:28:05;100023.31;;;8.37;77.12
12963;BME280;6546;49.882;8.666;2023-04-07T00:30:32;100024.00;;;8.39;76.89
12963;BME280;6546;49.882;8.666;2023-04-07T00:32:58;100019.66;;;8.40;76.63
12963;BME280;6546;49.882;8.666;2023-04-07T00:35:25;100013.00;;;8.37;76.96
12963;BME280;6546;49.882;8.666;2023-04-07T00:37:53;100017.72;;;8.42;76.65
12963;BME280;6546;49.882;8.666;2023-04-07T00:40:19;100004.63;;;8.35;76.01
12963;BME280;6546;49.882;8.666;2023-04-07T00:42:46;100002.16;;;8.34;76.60
12963;BME280;6546;49.882;8.666;2023-04-07T00:45:12;99993.19;;;8.38;76.07
12963;BME280;6546;49.882;8.666;2023-04-07T00:47:39;99994.94;;;8.37;76.62
12963;BME280;6546;49.882;8.666;2023-04-07T00:50:06;99988.50;;;8.33;76.65
12963;BME280;6546;49.882;8.666;2023-04-07T00:52:33;99989.44;;;8.32;76.67
12963;BME280;6546;49.882;8.666;2023-04-07T00:55:02;99981.69;;;8.32;76.64
12963;BME280;6546;49.882;8.666;2023-04-07T00:57:28;99979.25;;;8.31;76.59
12963;BME280;6546;49.882;8.666;2023-04-07T00:59:55;99975.22;;;8.28;76.94
12963;BME280;6546;49.882;8.666;2023-04-07T01:02:27;99966.78;;;8.26;76.66
12963;BME280;6546;49.882;8.666;2023-04-07T01:05:05;99945.78;;;8.21;76.69
12963;BME280;6546;49.882;8.666;2023-04-07T01:07:47;99965.28;;;8.33;76.79
12963;BME280;6546;49.882;8.666;2023-04-07T01:10:26;99965.63;;;8.38;76.65
12963;BME280;6546;49.882;8.666;2023-04-07T01:13:00;99952.38;;;8.33;76.55
12963;BME280;6546;49.882;8.666;2023-04-07T01:15:32;99957.28;;;8.44;75.90
12963;BME280;6546;49.882;8.666;2023-04-07T01:18:07;99965.97;;;8.43;75.80
12963;BME280;6546;49.882;8.666;2023-04-07T01:20:36;99957.28;;;8.44;75.40
12963;BME280;6546;49.882;8.666;2023-04-07T01:23:06;99951.16;;;8.46;75.03
12963;BME280;6546;49.882;8.666;2023-04-07T01:26:06;99952.38;;;8.33;75.78
12963;BME280;6546;49.882;8.666;2023-04-07T01:31:39;99953.97;;;8.34;75.79
12963;BME280;6546;49.882;8.666;2023-04-07T01:34:09;99948.81;;;8.34;75.99
12963;BME280;6546;49.882;8.666;2023-04-07T01:36:36;99949.41;;;8.28;76.09
12963;BME280;6546;49.882;8.666;2023-04-07T01:39:03;99954.19;;;8.23;76.53
12963;BME280;6546;49.882;8.666;2023-04-07T01:41:32;99949.41;;;8.28;76.61
12963;BME280;6546;49.882;8.666;2023-04-07T01:43:59;99951.88;;;8.30;76.53
12963;BME280;6546;49.882;8.666;2023-04-07T01:46:27;99946.47;;;8.23;76.72
12963;BME280;6546;49.882;8.666;2023-04-07T01:48:56;99939.69;;;8.22;76.58
12963;BME280;6546;49.882;8.666;2023-04-07T01:51:26;99943.81;;;8.33;76.60
12963;BME280;6546;49.882;8.666;2023-04-07T01:53:55;99938.81;;;8.31;76.46
12963;BME280;6546;49.882;8.666;2023-04-07T01:56:22;99930.69;;;8.26;76.41
12963;BME280;6546;49.882;8.666;2023-04-07T01:58:49;99934.31;;;8.33;76.30
12963;BME280;6546;49.882;8.666;2023-04-07T02:01:17;99933.81;;;8.30;76.82
12963;BME280;6546;49.882;8.666;2023-04-07T02:03:49;99939.25;;;8.27;76.96
12963;BME280;6546;49.882;8.666;2023-04-07T02:06:23;99935.47;;;8.21;77.02
12963;BME280;6546;49.882;8.666;2023-04-07T02:08:57;99933.19;;;8.18;77.46
12963;BME280;6546;49.882;8.666;2023-04-07T02:11:26;99916.03;;;8.09;77.29
12963;BME280;6546;49.882;8.666;2023-04-07T02:13:55;99922.84;;;8.10;77.58
12963;BME280;6546;49.882;8.666;2023-04-07T02:16:23;99925.63;;;8.17;77.57
12963;BME280;6546;49.882;8.666;2023-04-07T02:18:52;99924.13;;;8.14;77.73
12963;BME280;6546;49.882;8.666;2023-04-07T02:21:22;99923.34;;;8.14;78.00
12963;BME280;6546;49.882;8.666;2023-04-07T02:23:50;99927.47;;;8.07;78.39
12963;BME280;6546;49.882;8.666;2023-04-07T02:26:17;99919.94;;;8.13;78.40
12963;BME280;6546;49.882;8.666;2023-04-07T02:28:44;99922.66;;;8.12;77.88
12963;BME280;6546;49.882;8.666;2023-04-07T02:31:11;99915.09;;;8.10;78.14
12963;BME280;6546;49.882;8.666;2023-04-07T02:33:38;99914.28;;;8.10;77.96
12963;BME280;6546;49.882;8.666;2023-04-07T02:36:05;99911.19;;;8.06;78.08
12963;BME280;6546;49.882;8.666;2023-04-07T02:38:33;99906.69;;;8.08;78.28
12963;BME280;6546;49.882;8.666;2023-04-07T02:41:00;99908.59;;;8.06;78.37
12963;BME280;6546;49.882;8.666;2023-04-07T02:43:27;99882.41;;;7.93;78.46
12963;BME280;6546;49.882;8.666;2023-04-07T02:45:54;99907.16;;;8.04;78.53
12963;BME280;6546;49.882;8.666;2023-04-07T02:48:22;99911.78;;;8.00;78.73
12963;BME280;6546;49.882;8.666;2023-04-07T02:50:49;99908.69;;;7.97;79.01
12963;BME280;6546;49.882;8.666;2023-04-07T02:53:16;99908.84;;;7.95;79.28
12963;BME280;6546;49.882;8.666;2023-04-07T02:55:47;99907.59;;;7.99;79.14
12963;BME280;6546;49.882;8.666;2023-04-07T02:58:14;99901.47;;;8.00;78.91
12963;BME280;6546;49.882;8.666;2023-04-07T03:00:41;99882.72;;;7.90;78.91
12963;BME280;6546;49.882;8.666;2023-04-07T03:03:08;99898.28;;;8.06;78.70
12963;BME280;6546;49.882;8.666;2023-04-07T03:05:35;99894.59;;;8.09;78.36
12963;BME280;6546;49.882;8.666;2023-04-07T03:08:02;99903.16;;;8.09;78.64
12963;BME280;6546;49.882;8.666;2023-04-07T03:10:29;99885.41;;;8.06;77.83
12963;BME280;6546;49.882;8.666;2023-04-07T03:12:59;99890.78;;;8.13;77.91
12963;BME280;6546;49.882;8.666;2023-04-07T03:15:26;99895.75;;;8.14;78.14
12963;BME280;6546;49.882;8.666;2023-04-07T03:17:54;99899.16;;;8.15;78.05
12963;BME280;6546;49.882;8.666;2023-04-07T03:20:21;99897.38;;;8.15;78.00
12963;BME280;6546;49.882;8.666;2023-04-07T03:22:48;99880.38;;;8.05;78.26
12963;BME280;6546;49.882;8.666;2023-04-07T03:25:15;99897.69;;;8.12;78.08
12963;BME280;6546;49.882;8.666;2023-04-07T03:27:42;99894.47;;;8.10;78.04
12963;BME280;6546;49.882;8.666;2023-04-07T03:30:11;99885.41;;;8.06;78.18
12963;BME280;6546;49.882;8.666;2023-04-07T03:32:38;99888.50;;;8.10;78.47
12963;BME280;6546;49.882;8.666;2023-04-07T03:35:06;99897.03;;;8.10;78.22
12963;BME280;6546;49.882;8.666;2023-04-07T03:37:33;99889.44;;;8.09;78.49
12963;BME280;6546;49.882;8.666;2023-04-07T03:40:00;99892.50;;;8.04;78.40
12963;BME280;6546;49.882;8.666;2023-04-07T03:42:27;99879.59;;;8.04;78.50
12963;BME280;6546;49.882;8.666;2023-04-07T03:44:56;99891.81;;;8.02;78.65
12963;BME280;6546;49.882;8.666;2023-04-07T03:47:24;99867.25;;;7.90;78.97
12963;BME280;6546;49.882;8.666;2023-04-07T03:49:51;99876.59;;;7.91;79.33
12963;BME280;6546;49.882;8.666;2023-04-07T03:52:18;99890.50;;;7.98;79.15
12963;BME280;6546;49.882;8.666;2023-04-07T03:54:46;99889.69;;;7.98;79.19
12963;BME280;6546;49.882;8.666;2023-04-07T03:57:13;99879.81;;;7.93;79.38
12963;BME280;6546;49.882;8.666;2023-04-07T03:59:43;99885.31;;;7.98;79.21
12963;BME280;6546;49.882;8.666;2023-04-07T04:02:13;99879.75;;;8.03;79.40
12963;BME280;6546;49.882;8.666;2023-04-07T04:04:42;99881.72;;;8.09;78.82
12963;BME280;6546;49.882;8.666;2023-04-07T04:07:10;99862.63;;;8.02;78.56
12963;BME280;6546;49.882;8.666;2023-04-07T04:09:36;99873.16;;;8.08;78.78
12963;BME280;6546;49.882;8.666;2023-04-07T04:12:04;99876.72;;;8.07;78.63
12963;BME280;6546;49.882;8.666;2023-04-07T04:14:33;99871.78;;;7.96;78.89
12963;BME280;6546;49.882;8.666;2023-04-07T04:17:01;99883.94;;;8.04;79.04
12963;BME280;6546;49.882;8.666;2023-04-07T04:19:28;99876.34;;;8.02;78.95
12963;BME280;6546;49.882;8.666;2023-04-07T04:21:58;99880.38;;;8.05;79.17
12963;BME280;6546;49.882;8.666;2023-04-07T04:24:26;99870.88;;;8.05;78.85
12963;BME280;6546;49.882;8.666;2023-04-07T04:26:52;99856.78;;;7.91;79.06
12963;BME280;6546;49.882;8.666;2023-04-07T04:29:21;99881.72;;;8.09;79.27
12963;BME280;6546;49.882;8.666;2023-04-07T04:31:48;99864.72;;;7.98;79.12
12963;BME280;6546;49.882;8.666;2023-04-07T04:34:17;99865.09;;;8.03;79.14
12963;BME280;6546;49.882;8.666;2023-04-07T04:36:44;99878.91;;;8.20;79.00
12963;BME280;6546;49.882;8.666;2023-04-07T04:39:14;99888.22;;;8.21;78.96
12963;BME280;6546;49.882;8.666;2023-04-07T04:41:41;99887.28;;;8.22;79.03
12963;BME280;6546;49.882;8.666;2023-04-07T04:44:10;99887.78;;;8.25;78.75
12963;BME280;6546;49.882;8.666;2023-04-07T04:46:37;99878.13;;;8.27;78.35
12963;BME280;6546;49.882;8.666;2023-04-07T04:49:05;99889.28;;;8.28;77.94
12963;BME280;6546;49.882;8.666;2023-04-07T04:51:34;99868.69;;;8.10;78.09
12963;BME280;6546;49.882;8.666;2023-04-07T04:54:01;99887.44;;;8.20;78.34
12963;BME280;6546;49.882;8.666;2023-04-07T04:56:29;99877.16;;;8.03;78.37
12963;BME280;6546;49.882;8.666;2023-04-07T04:58:58;99892.31;;;8.06;78.87
12963;BME280;6546;49.882;8.666;2023-04-07T05:01:26;99891.50;;;8.05;78.86
12963;BME280;6546;49.882;8.666;2023-04-07T05:03:53;99895.38;;;8.01;78.84
12963;BME280;6546;49.882;8.666;2023-04-07T05:06:20;99899.19;;;7.97;79.20
12963;BME280;6546;49.882;8.666;2023-04-07T05:08:47;99903.44;;;8.06;79.22
12963;BME280;6546;49.882;8.666;2023-04-07T05:11:15;99904.41;;;8.05;78.84
12963;BME280;6546;49.882;8.666;2023-04-07T05:13:44;99902.13;;;8.02;79.35
12963;BME280;6546;49.882;8.666;2023-04-07T05:16:11;99900.88;;;8.06;79.11
12963;BME280;6546;49.882;8.666;2023-04-07T05:18:38;99904.09;;;8.08;78.96
12963;BME280;6546;49.882;8.666;2023-04-07T05:21:05;99895.06;;;8.04;79.04
12963;BME280;6546;49.882;8.666;2023-04-07T05:23:32;99906.84;;;8.07;79.35
12963;BME280;6546;49.882;8.666;2023-04-07T05:26:01;99909.44;;;8.07;79.15
12963;BME280;6546;49.882;8.666;2023-04-07T05:28:28;99901.00;;;8.05;79.59
12963;BME280;6546;49.882;8.666;2023-04-07T05:30:57;99900.56;;;8.09;79.30
12963;BME280;6546;49.882;8.666;2023-04-07T05:33:25;99883.63;;;8.07;79.12
12963;BME280;6546;49.882;8.666;2023-04-07T05:35:52;99905.28;;;8.14;79.11
12963;BME280;6546;49.882;8.666;2023-04-07T05:38:19;99904.78;;;8.10;79.34
12963;BME280;6546;49.882;8.666;2023-04-07T05:40:46;99892.03;;;8.09;79.36
12963;BME280;6546;49.882;8.666;2023-04-07T05:43:13;99878.56;;;7.97;79.70
12963;BME280;6546;49.882;8.666;2023-04-07T05:45:41;99886.34;;;8.05;79.64
12963;BME280;6546;49.882;8.666;2023-04-07T05:48:10;99884.81;;;8.12;79.52
12963;BME280;6546;49.882;8.666;2023-04-07T05:50:37;99884.47;;;8.07;79.66
12963;BME280;6546;49.882;8.666;2023-04-07T05:53:04;99898.19;;;8.16;80.26
12963;BME280;6546;49.882;8.666;2023-04-07T05:55:31;99902.44;;;8.25;79.65
12963;BME280;6546;49.882;8.666;2023-04-07T05:57:58;99899.72;;;8.26;79.42
12963;BME280;6546;49.882;8.666;2023-04-07T06:00:26;99906.16;;;8.22;80.43
12963;BME280;6546;49.882;8.666;2023-04-07T06:02:55;99903.19;;;8.35;80.10
12963;BME280;6546;49.882;8.666;2023-04-07T06:05:28;99903.19;;;8.35;79.41
12963;BME280;6546;49.882;8.666;2023-04-07T06:07:55;99912.41;;;8.37;79.29
12963;BME280;6546;49.882;8.666;2023-04-07T06:10:22;99904.72;;;8.46;79.66
12963;BME280;6546;49.882;8.666;2023-04-07T06:12:51;99909.91;;;8.54;78.59
12963;BME280;6546;49.882;8.666;2023-04-07T06:15:17;99901.66;;;8.50;78.55
12963;BME280;6546;49.882;8.666;2023-04-07T06:17:45;99905.75;;;8.53;79.04
12963;BME280;6546;49.882;8.666;2023-04-07T06:20:11;99905.31;;;8.65;78.60
12963;BME280;6546;49.882;8.666;2023-04-07T06:22:40;99910.38;;;8.75;78.05
12963;BME280;6546;49.882;8.666;2023-04-07T06:25:08;99900.03;;;8.75;77.77
12963;BME280;6546;49.882;8.666;2023-04-07T06:27:36;99896.16;;;8.79;77.30
12963;BME280;6546;49.882;8.666;2023-04-07T06:30:06;99899.25;;;8.82;77.20
12963;BME280;6546;49.882;8.666;2023-04-07T06:32:34;99892.94;;;8.77;77.57
12963;BME280;6546;49.882;8.666;2023-04-07T06:35:01;99887.13;;;8.75;77.45
12963;BME280;6546;49.882;8.666;2023-04-07T06:37:28;99891.91;;;8.62;77.98
12963;BME280;6546;49.882;8.666;2023-04-07T06:39:58;99894.19;;;8.65;78.29
12963;BME280;6546;49.882;8.666;2023-04-07T06:42:25;99895.09;;;8.56;78.97
12963;BME280;6546;49.882;8.666;2023-04-07T06:44:52;99889.06;;;8.47;79.57
12963;BME280;6546;49.882;8.666;2023-04-07T06:47:19;99899.16;;;8.58;79.39
12963;BME280;6546;49.882;8.666;2023-04-07T06:49:46;99905.13;;;8.59;79.38
12963;BME280;6546;49.882;8.666;2023-04-07T06:52:13;99897.38;;;8.59;79.38
12963;BME280;6546;49.882;8.666;2023-04-07T06:54:39;99900.66;;;8.69;79.37
12963;BME280;6546;49.882;8.666;2023-04-07T06:57:09;99907.78;;;8.75;79.46
12963;BME280;6546;49.882;8.666;2023-04-07T06:59:37;99901.06;;;8.82;79.37
12963;BME280;6546;49.882;8.666;2023-04-07T07:02:04;99880.84;;;8.77;79.17
12963;BME280;6546;49.882;8.666;2023-04-07T07:04:31;99899.44;;;8.89;79.17
12963;BME280;6546;49.882;8.666;2023-04-07T07:06:58;99904.97;;;8.94;78.80
12963;BME280;6546;49.882;8.666;2023-04-07T07:09:26;99906.28;;;8.98;78.66
12963;BME280;6546;49.882;8.666;2023-04-07T07:11:54;99908.69;;;9.00;78.67
12963;BME280;6546;49.882;8.666;2023-04-07T07:14:23;99910.78;;;8.96;78.21
12963;BME280;6546;49.882;8.666;2023-04-07T07:16:50;99890.59;;;8.91;78.05
12963;BME280;6546;49.882;8.666;2023-04-07T07:19:17;99929.84;;;9.03;78.12
12963;BME280;6546;49.882;8.666;2023-04-07T07:21:44;99909.81;;;8.97;78.10
12963;BME280;6546;49.882;8.666;2023-04-07T07:24:12;99916.94;;;9.03;77.46
12963;BME280;6546;49.882;8.666;2023-04-07T07:26:39;99921.28;;;9.03;77.97
12963;BME280;6546;49.882;8.666;2023-04-07T07:29:06;99921.97;;;9.05;77.78
12963;BME280;6546;49.882;8.666;2023-04-07T07:31:34;99931.16;;;9.07;77.55
12963;BME280;6546;49.882;8.666;2023-04-07T07:34:01;99924.38;;;9.06;77.30
12963;BME280;6546;49.882;8.666;2023-04-07T07:36:29;99924.69;;;9.03;77.59
12963;BME280;6546;49.882;8.666;2023-04-07T07:38:56;99920.16;;;9.05;77.69
12963;BME280;6546;49.882;8.666;2023-04-07T07:41:23;99927.47;;;9.10;77.77
12963;BME280;6546;49.882;8.666;2023-04-07T07:43:52;99911.91;;;9.02;77.67
12963;BME280;6546;49.882;8.666;2023-04-07T07:46:19;99932.94;;;9.15;78.10
12963;BME280;6546;49.882;8.666;2023-04-07T07:48:51;99924.75;;;9.19;77.75
12963;BME280;6546;49.882;8.666;2023-04-07T07:51:18;99910.19;;;9.18;77.52
12963;BME280;6546;49.882;8.666;2023-04-07T07:53:45;99923.47;;;9.31;77.27
12963;BME280;6546;49.882;8.666;2023-04-07T07:56:13;99940.16;;;9.45;76.83
12963;BME280;6546;49.882;8.666;2023-04-07T07:58:44;99942.59;;;9.46;76.53
12963;BME280;6546;49.882;8.666;2023-04-07T08:01:12;99940.16;;;9.45;76.56
12963;BME280;6546;49.882;8.666;2023-04-07T08:03:41;99944.19;;;9.47;76.67
12963;BME280;6546;49.882;8.666;2023-04-07T08:06:09;99948.72;;;9.54;76.40
12963;BME280;6546;49.882;8.666;2023-04-07T08:08:41;99926.91;;;9.40;76.51
12963;BME280;6546;49.882;8.666;2023-04-07T08:11:08;99939.03;;;9.47;76.01
12963;BME280;6546;49.882;8.666;2023-04-07T08:13:35;99927.88;;;9.39;75.79
12963;BME280;6546;49.882;8.666;2023-04-07T08:16:02;99951.00;;;9.48;75.71
12963;BME280;6546;49.882;8.666;2023-04-07T08:18:31;99947.28;;;9.43;75.57
12963;BME280;6546;49.882;8.666;2023-04-07T08:20:58;99948.53;;;9.39;75.83
12963;BME280;6546;49.882;8.666;2023-04-07T08:23:27;99954.22;;;9.42;75.67
12963;BME280;6546;49.882;8.666;2023-04-07T08:25:55;99943.84;;;9.34;76.02
12963;BME280;6546;49.882;8.666;2023-04-07T08:28:23;99935.94;;;9.36;75.54
12963;BME280;6546;49.882;8.666;2023-04-07T08:30:50;99948.53;;;9.47;75.67
12963;BME280;6546;49.882;8.666;2023-04-07T08:33:18;99954.72;;;9.54;75.67
12963;BME280;6546;49.882;8.666;2023-04-07T08:35:46;99962.47;;;9.54;75.91
12963;BME280;6546;49.882;8.666;2023-04-07T08:38:15;99953.91;;;9.54;75.82
12963;BME280;6546;49.882;8.666;2023-04-07T08:40:45;99962.66;;;9.61;75.91
12963;BME280;6546;49.882;8.666;2023-04-07T08:43:14;99963.00;;;9.66;75.69
12963;BME280;6546;49.882;8.666;2023-04-07T08:45:44;99943.56;;;9.54;75.48
12963;BME280;6546;49.882;8.666;2023-04-07T08:48:15;99968.16;;;9.66;75.17
12963;BME280;6546;49.882;8.666;2023-04-07T08:50:44;99962.31;;;9.64;75.33
12963;BME280;6546;49.882;8.666;2023-04-07T08:53:13;99963.00;;;9.66;75.48
12963;BME280;6546;49.882;8.666;2023-04-07T08:55:46;99966.22;;;9.68;75.56
12963;BME280;6546;49.882;8.666;2023-04-07T08:58:13;99971.38;;;9.68;75.66
12963;BME280;6546;49.882;8.666;2023-04-07T09:00:42;99967.34;;;9.65;75.82
12963;BME280;6546;49.882;8.666;2023-04-07T09:03:10;99970.44;;;9.77;75.48
12963;BME280;6546;49.882;8.666;2023-04-07T09:05:45;99975.47;;;9.78;75.48
12963;BME280;6546;49.882;8.666;2023-04-07T09:08:12;99969.16;;;9.81;75.44
12963;BME280;6546;49.882;8.666;2023-04-07T09:10:39;99962.84;;;9.75;75.48
12963;BME280;6546;49.882;8.666;2023-04-07T09:13:08;99976.25;;;9.87;75.29
12963;BME280;6546;49.882;8.666;2023-04-07T09:15:35;99962.34;;;9.72;75.18
12963;BME280;6546;49.882;8.666;2023-04-07T09:18:02;99987.88;;;9.83;75.13
12963;BME280;6546;49.882;8.666;2023-04-07T09:20:58;99986.28;;;9.82;75.23
12963;BME280;6546;49.882;8.666;2023-04-07T09:23:29;99995.00;;;9.81;75.00
12963;BME280;6546;49.882;8.666;2023-04-07T09:25:57;99986.75;;;9.77;74.59
12963;BME280;6546;49.882;8.666;2023-04-07T09:28:40;99966.53;;;9.65;74.89
12963;BME280;6546;49.882;8.666;2023-04-07T09:31:10;99988.06;;;9.81;74.88
12963;BME280;6546;49.882;8.666;2023-04-07T09:33:39;99980.13;;;9.75;75.02
12963;BME280;6546;49.882;8.666;2023-04-07T09:36:06;99974.47;;;9.71;75.31
12963;BME280;6546;49.882;8.666;2023-04-07T09:38:34;99988.56;;;9.85;75.32
12963;BME280;6546;49.882;8.666;2023-04-07T09:41:06;99991.78;;;9.87;75.76
12963;BME280;6546;49.882;8.666;2023-04-07T09:43:35;99970.44;;;9.77;75.53
12963;BME280;6546;49.882;8.666;2023-04-07T09:46:09;99997.94;;;9.94;75.35
12963;BME280;6546;49.882;8.666;2023-04-07T09:48:37;99987.28;;;9.97;74.04
12963;BME280;6546;49.882;8.666;2023-04-07T09:51:06;99986.94;;;10.00;74.13
12963;BME280;6546;49.882;8.666;2023-04-07T09:53:42;99986.94;;;10.08;74.07
12963;BME280;6546;49.882;8.666;2023-04-07T09:56:11;99990.53;;;10.15;74.21
12963;BME280;6546;49.882;8.666;2023-04-07T09:58:39;99981.97;;;10.15;74.16
12963;BME280;6546;49.882;8.666;2023-04-07T10:01:07;99984.72;;;10.21;74.25
12963;BME280;6546;49.882;8.666;2023-04-07T10:03:39;99991.19;;;10.25;73.99
12963;BME280;6546;49.882;8.666;2023-04-07T10:06:06;99987.97;;;10.23;74.32
12963;BME280;6546;49.882;8.666;2023-04-07T10:08:37;99988.31;;;10.20;74.27
12963;BME280;6546;49.882;8.666;2023-04-07T10:11:04;99989.59;;;10.16;74.32
12963;BME280;6546;49.882;8.666;2023-04-07T10:13:35;99994.41;;;10.11;74.57
12963;BME280;6546;49.882;8.666;2023-04-07T10:16:04;99994.25;;;10.05;74.67
12963;BME280;6546;49.882;8.666;2023-04-07T10:18:33;99992.94;;;10.00;75.03
12963;BME280;6546;49.882;8.666;2023-04-07T10:21:03;100000.84;;;9.99;75.46
12963;BME280;6546;49.882;8.666;2023-04-07T10:23:55;100000.84;;;9.99;75.82
12963;BME280;6546;49.882;8.666;2023-04-07T10:26:27;99993.75;;;10.01;76.32
12963;BME280;6546;49.882;8.666;2023-04-07T10:28:59;99998.59;;;10.04;76.37
12963;BME280;6546;49.882;8.666;2023-04-07T10:31:29;100004.59;;;10.13;76.60
12963;BME280;6546;49.882;8.666;2023-04-07T10:33:56;99995.53;;;10.09;76.53
12963;BME280;6546;49.882;8.666;2023-04-07T10:36:25;100007.34;;;10.11;76.55
12963;BME280;6546;49.882;8.666;2023-04-07T10:39:18;100007.69;;;10.16;76.21
12963;BME280;6546;49.882;8.666;2023-04-07T10:41:45;100007.50;;;10.10;76.12
12963;BME280;6546;49.882;8.666;2023-04-07T10:44:45;100006.69;;;10.09;76.34
12963;BME280;6546;49.882;8.666;2023-04-07T10:47:19;100002.97;;;10.03;76.03
12963;BME280;6546;49.882;8.666;2023-04-07T10:50:17;100014.13;;;10.12;76.35
12963;BME280;6546;49.882;8.666;2023-04-07T10:52:46;100000.19;;;10.05;76.10
12963;BME280;6546;49.882;8.666;2023-04-07T10:55:34;100017.09;;;10.17;75.68
12963;BME280;6546;49.882;8.666;2023-04-07T10:58:17;100024.03;;;10.17;75.54
12963;BME280;6546;49.882;8.666;2023-04-07T11:01:18;100021.22;;;10.02;76.11
12963;BME280;6546;49.882;8.666;2023-04-07T11:03:57;100012.66;;;9.85;76.76
12963;BME280;6546;49.882;8.666;2023-04-07T11:06:25;100032.16;;;9.80;78.19
12963;BME280;6546;49.882;8.666;2023-04-07T11:08:54;100028.94;;;9.78;78.88
12963;BME280;6546;49.882;8.666;2023-04-07T11:11:39;100020.19;;;9.71;79.48
12963;BME280;6546;49.882;8.666;2023-04-07T11:14:06;100024.41;;;9.72;79.57
12963;BME280;6546;49.882;8.666;2023-04-07T11:16:40;100019.53;;;9.69;79.02
12963;BME280;6546;49.882;8.666;2023-04-07T11:19:11;100024.41;;;9.80;78.87
12963;BME280;6546;49.882;8.666;2023-04-07T11:21:38;100006.81;;;9.83;79.12
12963;BME280;6546;49.882;8.666;2023-04-07T11:24:07;100025.91;;;9.90;78.99
12963;BME280;6546;49.882;8.666;2023-04-07T11:26:39;100020.88;;;9.89;78.17
12963;BME280;6546;49.882;8.666;2023-04-07T11:29:07;100016.84;;;9.94;77.85
12963;BME280;6546;49.882;8.666;2023-04-07T11:31:37;100016.72;;;10.04;77.64
12963;BME280;6546;49.882;8.666;2023-04-07T11:34:04;100016.41;;;10.15;77.29
12963;BME280;6546;49.882;8.666;2023-04-07T11:36:39;100019.47;;;10.11;76.76
12963;BME280;6546;49.882;8.666;2023-04-07T11:39:19;100018.00;;;10.08;77.07
12963;BME280;6546;49.882;8.666;2023-04-07T11:41:47;100004.41;;;10.06;77.24
12963;BME280;6546;49.882;8.666;2023-04-07T11:44:16;100020.31;;;10.19;77.36
12963;BME280;6546;49.882;8.666;2023-04-07T11:46:54;100025.19;;;10.30;77.39
12963;BME280;6546;49.882;8.666;2023-04-07T11:49:24;100034.06;;;10.36;76.66
12963;BME280;6546;49.882;8.666;2023-04-07T11:52:00;100031.94;;;10.31;76.97
12963;BME280;6546;49.882;8.666;2023-04-07T11:54:38;100021.28;;;10.26;76.62
12963;BME280;6546;49.882;8.666;2023-04-07T11:57:06;100042.16;;;10.33;76.69
12963;BME280;6546;49.882;8.666;2023-04-07T11:59:35;100042.97;;;10.41;76.47
12963;BME280;6546;49.882;8.666;2023-04-07T12:02:02;100048.97;;;10.50;76.42
12963;BME280;6546;49.882;8.666;2023-04-07T12:04:33;100030.03;;;10.49;76.49
12963;BME280;6546;49.882;8.666;2023-04-07T12:07:06;100046.50;;;10.57;75.09
12963;BME280;6546;49.882;8.666;2023-04-07T12:09:37;100040.38;;;10.33;75.58
12963;BME280;6546;49.882;8.666;2023-04-07T12:12:06;100044.25;;;10.29;75.93
12963;BME280;6546;49.882;8.666;2023-04-07T12:14:36;100021.25;;;10.10;76.21
12963;BME280;6546;49.882;8.666;2023-04-07T12:17:03;100045.22;;;10.28;76.53
12963;BME280;6546;49.882;8.666;2023-04-07T12:19:33;100055.25;;;10.23;76.59
12963;BME280;6546;49.882;8.666;2023-04-07T12:22:05;100048.97;;;10.34;76.42
12963;BME280;6546;49.882;8.666;2023-04-07T12:24:32;100042.66;;;10.36;76.41
12963;BME280;6546;49.882;8.666;2023-04-07T12:27:03;100044.59;;;10.42;76.85
12963;BME280;6546;49.882;8.666;2023-04-07T12:29:31;100053.47;;;10.32;77.19
12963;BME280;6546;49.882;8.666;2023-04-07T12:31:59;100047.47;;;10.31;77.07
12963;BME280;6546;49.882;8.666;2023-04-07T12:34:28;100040.69;;;10.22;76.74
12963;BME280;6546;49.882;8.666;2023-04-07T12:36:55;100058.63;;;10.16;77.04
12963;BME280;6546;49.882;8.666;2023-04-07T12:39:22;100056.69;;;10.18;77.07
12963;BME280;6546;49.882;8.666;2023-04-07T12:41:49;100058.91;;;10.13;77.74
12963;BME280;6546;49.882;8.666;2023-04-07T12:44:19;100058.28;;;10.11;78.14
12963;BME280;6546;49.882;8.666;2023-04-07T12:46:48;100059.88;;;10.12;77.70
12963;BME280;6546;49.882;8.666;2023-04-07T12:49:18;100062.97;;;10.15;77.75
12963;BME280;6546;49.882;8.666;2023-04-07T12:51:46;100056.69;;;10.18;77.50
12963;BME280;6546;49.882;8.666;2023-04-07T12:54:13;100048.78;;;10.27;77.40
12963;BME280;6546;49.882;8.666;2023-04-07T12:56:41;100063.34;;;10.36;77.18
12963;BME280;6546;49.882;8.666;2023-04-07T12:59:08;100062.88;;;10.49;77.52
12963;BME280;6546;49.882;8.666;2023-04-07T13:01:40;100058.19;;;10.52;76.71
12963;BME280;6546;49.882;8.666;2023-04-07T13:04:07;100058.66;;;10.48;76.13
12963;BME280;6546;49.882;8.666;2023-04-07T13:06:37;100062.38;;;10.45;75.39
12963;BME280;6546;49.882;8.666;2023-04-07T13:09:05;100070.47;;;10.42;75.59
12963;BME280;6546;49.882;8.666;2023-04-07T13:11:34;100058.50;;;10.41;75.56
12963;BME280;6546;49.882;8.666;2023-04-07T13:14:05;100056.22;;;10.30;76.02
12963;BME280;6546;49.882;8.666;2023-04-07T13:16:37;100061.25;;;10.40;75.33
12963;BME280;6546;49.882;8.666;2023-04-07T13:19:09;100069.00;;;10.40;74.59
12963;BME280;6546;49.882;8.666;2023-04-07T13:21:39;100070.78;;;10.39;75.59
12963;BME280;6546;49.882;8.666;2023-04-07T13:24:06;100069.81;;;10.48;75.09
12963;BME280;6546;49.882;8.666;2023-04-07T13:26:33;100069.66;;;10.50;75.68
12963;BME280;6546;49.882;8.666;2023-04-07T13:29:01;100067.06;;;10.42;76.28
12963;BME280;6546;49.882;8.666;2023-04-07T13:31:31;100041.34;;;10.32;77.57